createdAt,value
2022-08-22T00:00:48.683Z,13.50
2022-08-22T00:02:48.677Z,12.00
2022-08-22T00:02:48.935Z,15.67
2022-08-22T00:03:03.564Z,13.00
2022-08-22T00:03:10.556Z,15.00
2022-08-22T00:03:22.543Z,17.50
2022-08-22T00:05:56.950Z,10.50
2022-08-22T00:08:34.342Z,14.00
2022-08-22T00:11:22.245Z,16.00
2022-08-22T00:14:01.658Z,16.00
2022-08-22T00:16:39.495Z,15.00
2022-08-22T00:19:07.453Z,17.00
2022-08-22T00:21:53.443Z,13.33
2022-08-22T00:24:27.470Z,15.33
2022-08-22T00:27:04.631Z,15.33
2022-08-22T00:29:44.430Z,17.33
2022-08-22T00:32:33.035Z,14.67
2022-08-22T00:35:00.999Z,13.00
2022-08-22T00:37:37.673Z,14.33
2022-08-22T00:40:11.719Z,13.33
2022-08-22T00:42:40.475Z,15.00
2022-08-22T00:45:20.195Z,15.00
2022-08-22T00:47:51.072Z,13.00
2022-08-22T00:50:27.759Z,15.00
2022-08-22T00:53:07.933Z,13.00
2022-08-22T00:55:44.636Z,14.33
2022-08-22T00:58:32.680Z,15.33
2022-08-22T01:01:05.780Z,13.33
2022-08-22T01:03:48.953Z,13.00
2022-08-22T01:06:23.744Z,15.00
2022-08-22T01:08:51.516Z,14.00
2022-08-22T01:11:28.183Z,13.50
2022-08-22T01:13:56.151Z,17.33
2022-08-22T01:16:38.875Z,16.33
2022-08-22T01:19:09.740Z,18.67
2022-08-22T01:21:51.603Z,16.00
2022-08-22T01:24:34.279Z,16.67
2022-08-22T01:27:08.252Z,15.00
2022-08-22T01:29:57.205Z,16.00
2022-08-22T01:32:43.402Z,14.33
2022-08-22T01:35:30.295Z,14.67
2022-08-22T01:38:03.885Z,13.33
2022-08-22T01:40:31.869Z,11.33
2022-08-22T01:43:19.399Z,12.67
2022-08-22T01:46:02.131Z,12.00
2022-08-22T01:48:42.088Z,14.00
2022-08-22T01:51:17.769Z,12.00
2022-08-22T01:54:05.097Z,17.33
2022-08-22T01:56:40.391Z,13.00
2022-08-22T01:59:11.008Z,13.00
2022-08-22T02:01:45.212Z,12.50
2022-08-22T02:04:13.291Z,12.67
2022-08-22T02:07:01.301Z,15.00
2022-08-22T02:09:41.421Z,15.00
2022-08-22T02:12:21.674Z,13.33
2022-08-22T02:15:00.418Z,17.00
2022-08-22T02:17:54.760Z,14.00
2022-08-22T02:20:37.898Z,18.67
2022-08-22T02:23:17.563Z,16.33
2022-08-22T02:26:11.586Z,16.33
2022-08-22T02:28:57.325Z,16.33
2022-08-22T02:31:33.656Z,14.33
2022-08-22T02:34:03.482Z,15.67
2022-08-22T02:36:34.200Z,16.00
2022-08-22T02:39:01.946Z,16.33
2022-08-22T02:41:36.318Z,14.00
2022-08-22T02:44:04.152Z,15.33
2022-08-22T02:46:52.153Z,13.00
2022-08-22T02:49:20.089Z,16.33
2022-08-22T02:51:58.575Z,15.50
2022-08-22T02:54:35.910Z,15.00
2022-08-22T02:57:14.449Z,13.00
2022-08-22T03:00:01.292Z,17.33
2022-08-22T03:02:42.181Z,12.67
2022-08-22T03:05:15.867Z,16.00
2022-08-22T03:07:49.366Z,14.67
2022-08-22T03:10:23.455Z,15.33
2022-08-22T03:12:54.709Z,15.33
2022-08-22T03:15:28.145Z,16.33
2022-08-22T03:18:01.783Z,13.00
2022-08-22T03:20:38.400Z,16.00
2022-08-22T03:23:13.725Z,16.33
2022-08-22T03:25:48.040Z,15.33
2022-08-22T03:28:20.844Z,17.67
2022-08-22T03:30:51.456Z,12.67
2022-08-22T03:33:21.269Z,14.50
2022-08-22T03:35:50.072Z,20.67
2022-08-22T03:38:50.036Z,17.00
2022-08-22T03:41:35.830Z,18.33
2022-08-22T03:44:03.519Z,14.33
2022-08-22T03:46:37.324Z,17.33
2022-08-22T03:49:14.201Z,17.00
2022-08-22T03:51:45.114Z,18.33
2022-08-22T03:54:30.388Z,16.00
2022-08-22T03:57:07.518Z,15.00
2022-08-22T03:59:42.650Z,14.33
2022-08-22T04:02:35.212Z,14.00
2022-08-22T04:04:58.451Z,14.00
2022-08-22T04:07:38.758Z,15.00
2022-08-22T04:10:29.329Z,16.00
2022-08-22T04:12:57.748Z,14.33
2022-08-22T04:15:44.453Z,14.00
2022-08-22T04:18:15.289Z,15.33
2022-08-22T04:21:06.318Z,14.00
2022-08-22T04:23:37.151Z,15.00
2022-08-22T04:26:12.813Z,17.33
2022-08-22T04:28:45.588Z,17.33
2022-08-22T04:31:14.714Z,14.33
2022-08-22T04:33:50.895Z,15.33
2022-08-22T04:36:27.548Z,14.33
2022-08-22T04:39:10.480Z,16.00
2022-08-22T04:41:54.188Z,14.33
2022-08-22T04:44:40.501Z,15.33
2022-08-22T04:47:23.951Z,15.67
2022-08-22T04:50:15.248Z,15.00
2022-08-22T04:52:49.152Z,15.33
2022-08-22T04:55:32.010Z,15.00
2022-08-22T04:58:02.723Z,13.00
2022-08-22T05:00:54.560Z,14.50
2022-08-22T05:03:25.031Z,18.67
2022-08-22T05:05:54.064Z,17.67
2022-08-22T05:08:25.206Z,19.33
2022-08-22T05:10:53.734Z,19.50
2022-08-22T05:13:21.468Z,19.67
2022-08-22T05:15:54.381Z,14.33
2022-08-22T05:18:25.531Z,15.67
2022-08-22T05:21:00.873Z,14.00
2022-08-22T05:23:31.060Z,18.00
2022-08-22T05:26:01.107Z,16.00
2022-08-22T05:28:41.130Z,21.67
2022-08-22T05:31:12.070Z,19.00
2022-08-22T05:33:42.906Z,18.00
2022-08-22T05:36:13.811Z,17.67
2022-08-22T05:38:44.585Z,21.67
2022-08-22T05:41:17.232Z,17.00
2022-08-22T05:43:45.987Z,18.00
2022-08-22T05:46:20.541Z,20.00
2022-08-22T05:48:59.933Z,20.67
2022-08-22T05:51:34.172Z,19.67
2022-08-22T05:54:22.179Z,19.33
2022-08-22T05:57:19.177Z,20.00
2022-08-22T05:59:51.357Z,20.00
2022-08-22T06:02:26.334Z,20.33
2022-08-22T06:04:58.911Z,26.00
2022-08-22T06:07:31.860Z,18.00
2022-08-22T06:09:59.583Z,20.00
2022-08-22T06:12:39.697Z,20.33
2022-08-22T06:15:34.184Z,20.00
2022-08-22T06:18:10.495Z,17.00
2022-08-22T06:20:47.854Z,18.00
2022-08-22T06:23:20.716Z,19.00
2022-08-22T06:25:49.154Z,16.67
2022-08-22T06:28:23.134Z,21.67
2022-08-22T06:30:53.688Z,17.67
2022-08-22T06:33:25.824Z,18.67
2022-08-22T06:36:20.684Z,18.00
2022-08-22T06:38:55.539Z,21.00
2022-08-22T06:41:26.893Z,18.00
2022-08-22T06:43:55.764Z,16.00
2022-08-22T06:46:26.979Z,15.33
2022-08-22T06:48:56.138Z,18.33
2022-08-22T06:51:29.279Z,20.67
2022-08-22T06:54:00.721Z,15.00
2022-08-22T06:56:32.149Z,15.00
2022-08-22T06:59:01.986Z,13.33
2022-08-22T07:01:41.715Z,14.33
2022-08-22T07:04:10.500Z,18.00
2022-08-22T07:06:41.502Z,16.33
2022-08-22T07:09:35.339Z,13.00
2022-08-22T07:12:10.970Z,13.33
2022-08-22T07:14:40.322Z,12.00
2022-08-22T07:17:09.565Z,9.67
2022-08-22T07:19:40.588Z,12.00
2022-08-22T07:22:11.965Z,13.00
2022-08-22T07:24:44.218Z,13.00
2022-08-22T07:27:24.197Z,16.00
2022-08-22T07:30:02.054Z,17.33
2022-08-22T07:32:46.975Z,14.00
2022-08-22T07:35:17.762Z,14.00
2022-08-22T07:37:46.854Z,13.00
2022-08-22T07:40:15.347Z,15.33
2022-08-22T07:42:49.078Z,15.33
2022-08-22T07:45:25.753Z,14.00
2022-08-22T07:48:00.481Z,14.00
2022-08-22T07:50:40.337Z,17.67
2022-08-22T07:53:28.432Z,12.67
2022-08-22T07:55:57.698Z,14.00
2022-08-22T07:58:26.868Z,6.67
2022-08-22T08:00:55.300Z,14.00
2022-08-22T08:03:25.428Z,13.00
2022-08-22T08:05:54.118Z,4.00
2022-08-22T08:08:26.781Z,7.00
2022-08-22T08:10:56.322Z,16.33
2022-08-22T08:13:34.751Z,9.00
2022-08-22T08:16:05.266Z,6.33
2022-08-22T08:18:34.450Z,15.00
2022-08-22T08:21:04.520Z,13.67
2022-08-22T08:23:39.718Z,14.33
2022-08-22T08:26:10.625Z,12.33
2022-08-22T08:28:40.211Z,14.00
2022-08-22T08:31:08.340Z,17.67
2022-08-22T08:33:38.255Z,14.00
2022-08-22T08:36:06.710Z,14.33
2022-08-22T08:38:56.227Z,13.33
2022-08-22T08:41:42.381Z,15.00
2022-08-22T08:44:37.391Z,12.67
2022-08-22T08:47:28.521Z,13.33
2022-08-22T08:50:05.171Z,13.33
2022-08-22T08:52:52.777Z,14.67
2022-08-22T08:55:39.728Z,14.00
2022-08-22T08:58:19.694Z,14.33
2022-08-22T09:01:16.676Z,12.00
2022-08-22T09:03:59.534Z,13.00
2022-08-22T09:06:36.095Z,11.67
2022-08-22T09:09:22.793Z,11.00
2022-08-22T09:11:53.210Z,14.00
2022-08-22T09:14:27.031Z,12.67
2022-08-22T09:17:04.963Z,13.00
2022-08-22T09:19:37.766Z,11.00
2022-08-22T09:22:22.280Z,13.67
2022-08-22T09:24:59.258Z,12.67
2022-08-22T09:27:42.861Z,15.67
2022-08-22T09:30:17.568Z,12.00
2022-08-22T09:32:48.688Z,15.00
2022-08-22T09:35:16.379Z,12.67
2022-08-22T09:38:07.472Z,14.00
2022-08-22T09:40:42.583Z,11.00
2022-08-22T09:43:21.282Z,11.67
2022-08-22T09:45:52.596Z,12.00
2022-08-22T09:48:30.938Z,15.00
2022-08-22T09:51:31.222Z,16.00
2022-08-22T09:54:10.734Z,17.00
2022-08-22T09:56:43.024Z,14.33
2022-08-22T09:59:35.659Z,7.00
2022-08-22T10:02:06.032Z,19.00
2022-08-22T10:04:43.912Z,18.33
2022-08-22T10:07:29.757Z,19.00
2022-08-22T10:10:09.793Z,9.33
2022-08-22T10:12:49.879Z,8.00
2022-08-22T10:15:35.650Z,15.33
2022-08-22T10:18:04.009Z,16.00
2022-08-22T10:20:58.838Z,14.33
2022-08-22T10:23:35.735Z,14.33
2022-08-22T10:26:22.863Z,17.67
2022-08-22T10:28:56.713Z,17.67
2022-08-22T10:31:30.762Z,16.33
2022-08-22T10:34:01.900Z,17.67
2022-08-22T10:36:41.070Z,16.00
2022-08-22T10:39:11.930Z,15.00
2022-08-22T10:41:58.602Z,9.67
2022-08-22T10:44:34.358Z,9.00
2022-08-22T10:47:07.056Z,9.00
2022-08-22T10:49:46.042Z,7.67
2022-08-22T10:52:24.554Z,6.00
2022-08-22T10:55:01.445Z,12.33
2022-08-22T10:57:59.097Z,5.67
2022-08-22T11:00:27.008Z,6.00
2022-08-22T11:03:18.738Z,6.00
2022-08-22T11:05:51.153Z,6.00
2022-08-22T11:08:26.049Z,7.00
2022-08-22T11:10:59.166Z,6.00
2022-08-22T11:13:30.698Z,6.67
2022-08-22T11:16:04.580Z,7.00
2022-08-22T11:18:57.803Z,7.00
2022-08-22T11:21:35.862Z,5.00
2022-08-22T11:24:55.850Z,8.00
2022-08-22T11:27:39.769Z,4.00
2022-08-22T11:30:10.906Z,7.67
2022-08-22T11:32:46.228Z,7.67
2022-08-22T11:35:27.738Z,6.00
2022-08-22T11:38:14.214Z,8.33
2022-08-22T11:40:49.610Z,7.67
2022-08-22T11:43:18.443Z,8.33
2022-08-22T11:45:50.570Z,6.00
2022-08-22T11:48:23.600Z,6.00
2022-08-22T11:51:13.293Z,6.33
2022-08-22T11:53:52.307Z,9.00
2022-08-22T11:56:26.079Z,6.00
2022-08-22T11:59:07.676Z,8.00
2022-08-22T12:01:39.834Z,8.00
2022-08-22T12:04:31.192Z,6.67
2022-08-22T12:07:02.141Z,7.00
2022-08-22T12:09:47.758Z,6.00
2022-08-22T12:12:25.594Z,8.00
2022-08-22T12:14:54.603Z,6.33
2022-08-22T12:17:55.339Z,7.67
2022-08-22T12:20:26.076Z,6.00
2022-08-22T12:23:23.262Z,5.00
2022-08-22T12:26:22.044Z,5.00
2022-08-22T12:29:02.081Z,9.00
2022-08-22T12:31:58.717Z,16.00
2022-08-22T12:34:44.962Z,5.33
2022-08-22T12:37:19.077Z,6.00
2022-08-22T12:40:10.086Z,5.00
2022-08-22T12:42:38.106Z,6.00
2022-08-22T12:45:17.691Z,5.00
2022-08-22T12:47:48.389Z,6.00
2022-08-22T12:50:19.734Z,10.00
2022-08-22T12:52:52.345Z,11.67
2022-08-22T12:55:29.495Z,14.00
2022-08-22T12:58:21.673Z,11.33
2022-08-22T13:00:50.294Z,11.00
2022-08-22T13:03:25.414Z,5.33
2022-08-22T13:05:57.038Z,4.00
2022-08-22T13:08:30.434Z,11.00
2022-08-22T13:11:09.873Z,12.00
2022-08-22T13:13:55.995Z,11.00
2022-08-22T13:16:26.370Z,6.00
2022-08-22T13:18:57.208Z,3.67
2022-08-22T13:21:31.963Z,5.00
2022-08-22T13:24:38.866Z,3.00
2022-08-22T13:27:30.405Z,7.00
2022-08-22T13:30:05.375Z,5.00
2022-08-22T13:32:44.675Z,7.00
2022-08-22T13:35:24.876Z,6.00
2022-08-22T13:37:56.330Z,5.33
2022-08-22T13:40:29.370Z,13.00
2022-08-22T13:43:02.420Z,4.67
2022-08-22T13:45:32.938Z,3.00
2022-08-22T13:48:03.609Z,5.00
2022-08-22T13:50:37.499Z,7.00
2022-08-22T13:53:35.846Z,4.00
2022-08-22T13:56:15.872Z,4.00
2022-08-22T13:58:47.646Z,2.00
2022-08-22T14:01:28.408Z,12.33
2022-08-22T14:04:19.075Z,6.33
2022-08-22T14:06:59.530Z,5.00
2022-08-22T14:09:33.406Z,5.00
2022-08-22T14:12:04.617Z,4.00
2022-08-22T14:14:35.867Z,10.00
2022-08-22T14:17:04.470Z,12.00
2022-08-22T14:19:52.731Z,4.00
2022-08-22T14:22:32.011Z,6.00
2022-08-22T14:25:23.007Z,5.67
2022-08-22T14:27:52.527Z,5.00
2022-08-22T14:30:24.487Z,7.67
2022-08-22T14:32:57.645Z,6.00
2022-08-22T14:35:37.845Z,9.00
2022-08-22T14:38:29.875Z,8.00
2022-08-22T14:41:15.210Z,7.00
2022-08-22T14:43:47.649Z,7.00
2022-08-22T14:46:19.819Z,10.33
2022-08-22T14:49:05.606Z,8.00
2022-08-22T14:51:34.553Z,3.67
2022-08-22T14:54:10.174Z,8.00
2022-08-22T14:56:43.239Z,8.00
2022-08-22T14:59:31.585Z,13.00
2022-08-22T15:02:06.331Z,13.00
2022-08-22T15:04:36.757Z,11.67
2022-08-22T15:07:05.546Z,12.00
2022-08-22T15:09:48.512Z,6.33
2022-08-22T15:12:22.226Z,9.00
2022-08-22T15:14:52.647Z,7.00
2022-08-22T15:17:35.037Z,8.67
2022-08-22T15:20:27.980Z,7.67
2022-08-22T15:22:59.149Z,7.00
2022-08-22T15:25:47.056Z,13.33
2022-08-22T15:28:20.429Z,13.00
2022-08-22T15:30:57.786Z,15.33
2022-08-22T15:33:39.124Z,18.00
2022-08-22T15:36:21.785Z,14.00
2022-08-22T15:38:53.779Z,13.00
2022-08-22T15:41:31.468Z,13.67
2022-08-22T15:44:07.423Z,12.00
2022-08-22T15:46:44.109Z,11.67
2022-08-22T15:49:23.553Z,12.00
2022-08-22T15:51:54.897Z,15.00
2022-08-22T15:54:25.663Z,12.67
2022-08-22T15:56:53.912Z,12.50
2022-08-22T15:59:54.379Z,12.33
2022-08-22T16:02:27.059Z,13.00
2022-08-22T16:05:04.275Z,12.00
2022-08-22T16:07:38.160Z,14.33
2022-08-22T16:10:08.909Z,12.33
2022-08-22T16:12:39.921Z,15.00
2022-08-22T16:15:27.693Z,13.00
2022-08-22T16:17:58.955Z,13.00
2022-08-22T16:20:26.924Z,14.00
2022-08-22T16:22:56.479Z,17.67
2022-08-22T16:25:43.066Z,11.00
2022-08-22T16:28:57.001Z,12.00
2022-08-22T16:31:29.155Z,14.00
2022-08-22T16:33:58.760Z,12.00
2022-08-22T16:36:47.280Z,11.33
2022-08-22T16:39:23.797Z,11.00
2022-08-22T16:41:53.183Z,12.00
2022-08-22T16:44:21.050Z,11.00
2022-08-22T16:46:51.684Z,13.00
2022-08-22T16:49:28.316Z,13.33
2022-08-22T16:52:14.719Z,18.67
2022-08-22T16:54:44.010Z,21.00
2022-08-22T16:57:17.495Z,17.00
2022-08-22T16:59:55.941Z,17.67
2022-08-22T17:02:42.377Z,17.00
2022-08-22T17:05:32.747Z,18.00
2022-08-22T17:08:14.438Z,18.00
2022-08-22T17:10:49.803Z,15.00
2022-08-22T17:13:37.329Z,13.67
2022-08-22T17:16:17.194Z,14.00
2022-08-22T17:19:05.275Z,15.00
2022-08-22T17:21:39.186Z,13.00
2022-08-22T17:24:31.885Z,13.00
2022-08-22T17:27:06.602Z,12.00
2022-08-22T17:29:34.573Z,13.00
2022-08-22T17:32:14.642Z,14.00
2022-08-22T17:34:55.141Z,13.00
2022-08-22T17:37:36.386Z,14.33
2022-08-22T17:40:07.104Z,11.00
2022-08-22T17:42:37.737Z,12.33
2022-08-22T17:45:05.514Z,11.00
2022-08-22T17:47:53.572Z,12.00
2022-08-22T17:50:27.093Z,12.00
2022-08-22T17:52:59.644Z,12.00
2022-08-22T17:55:31.454Z,11.00
2022-08-22T17:58:37.766Z,11.33
2022-08-22T18:01:08.524Z,12.00
2022-08-22T18:03:38.451Z,14.00
2022-08-22T18:06:10.327Z,11.00
2022-08-22T18:11:52.792Z,12.67
2022-08-22T18:14:35.650Z,14.00
2022-08-22T18:17:13.554Z,12.67
2022-08-22T18:19:47.315Z,14.00
2022-08-22T18:22:22.629Z,13.33
2022-08-22T18:24:53.451Z,14.67
2022-08-22T18:27:34.794Z,12.00
2022-08-22T18:30:15.675Z,14.00
2022-08-22T18:33:09.488Z,13.67
2022-08-22T18:35:49.815Z,12.67
2022-08-22T18:38:30.208Z,12.33
2022-08-22T18:41:12.334Z,12.33
2022-08-22T18:43:48.353Z,11.33
2022-08-22T18:46:22.450Z,13.33
2022-08-22T18:49:14.059Z,11.33
2022-08-22T18:51:38.927Z,10.00
2022-08-22T18:54:07.047Z,14.00
2022-08-22T18:56:40.272Z,10.33
2022-08-22T18:59:08.027Z,13.33
2022-08-22T19:01:45.139Z,18.50
2022-08-22T19:04:21.976Z,16.00
2022-08-22T19:07:08.162Z,15.00
2022-08-22T19:09:40.475Z,12.00
2022-08-22T19:12:20.593Z,13.67
2022-08-22T19:15:07.236Z,13.67
2022-08-22T19:17:35.222Z,14.67
2022-08-22T19:20:40.043Z,15.00
2022-08-22T19:23:26.794Z,14.67
2022-08-22T19:26:13.197Z,12.00
2022-08-22T19:28:41.136Z,14.67
2022-08-22T19:31:23.528Z,13.00
2022-08-22T19:34:23.777Z,12.00
2022-08-22T19:37:10.091Z,14.00
2022-08-22T19:40:02.455Z,14.00
2022-08-22T19:42:35.018Z,16.00
2022-08-22T19:45:34.882Z,15.00
2022-08-22T19:48:13.907Z,12.00
2022-08-22T19:50:43.331Z,12.00
2022-08-22T19:53:29.896Z,12.00
2022-08-22T19:56:16.511Z,17.00
2022-08-22T19:59:02.952Z,15.00
2022-08-22T20:01:33.816Z,10.33
2022-08-22T20:04:05.135Z,14.00
2022-08-22T20:06:46.261Z,14.00
2022-08-22T20:09:14.301Z,12.67
2022-08-22T20:11:42.914Z,11.67
2022-08-22T20:14:16.728Z,13.00
2022-08-22T20:17:00.247Z,15.00
2022-08-22T20:19:40.087Z,14.00
2022-08-22T20:22:31.477Z,12.33
2022-08-22T20:25:02.287Z,12.00
2022-08-22T20:27:34.913Z,12.00
2022-08-22T20:30:04.707Z,11.67
2022-08-22T20:32:37.923Z,13.00
2022-08-22T20:35:06.276Z,11.67
2022-08-22T20:38:05.344Z,13.00
2022-08-22T20:40:56.058Z,12.67
2022-08-22T20:43:28.341Z,11.00
2022-08-22T20:45:59.896Z,11.67
2022-08-22T20:48:37.838Z,12.00
2022-08-22T20:51:06.911Z,13.00
2022-08-22T20:53:35.503Z,13.50
2022-08-22T20:56:07.125Z,11.67
2022-08-22T20:58:40.100Z,15.00
2022-08-22T21:01:11.404Z,15.00
2022-08-22T21:03:50.074Z,13.67
2022-08-22T21:06:20.200Z,14.00
2022-08-22T21:09:08.515Z,17.33
2022-08-22T21:11:42.255Z,17.33
2022-08-22T21:14:23.401Z,15.33
2022-08-22T21:16:52.229Z,14.33
2022-08-22T21:19:23.951Z,18.67
2022-08-22T21:21:52.036Z,16.33
2022-08-22T21:24:20.385Z,12.00
2022-08-22T21:26:58.852Z,13.00
2022-08-22T21:29:33.864Z,14.00
2022-08-22T21:32:16.979Z,14.33
2022-08-22T21:34:46.643Z,13.00
2022-08-22T21:37:17.124Z,16.00
2022-08-22T21:39:50.299Z,12.33
2022-08-22T21:42:25.973Z,17.67
2022-08-22T21:44:56.833Z,13.67
2022-08-22T21:47:30.495Z,15.00
2022-08-22T21:49:59.421Z,14.00
2022-08-22T21:52:31.906Z,11.00
2022-08-22T21:55:14.819Z,12.00
2022-08-22T21:57:43.090Z,14.00
2022-08-22T22:00:31.819Z,10.67
2022-08-22T22:03:04.227Z,11.67
2022-08-22T22:05:35.745Z,12.00
2022-08-22T22:08:04.345Z,13.67
2022-08-22T22:10:32.745Z,12.00
2022-08-22T22:13:00.607Z,11.50
2022-08-22T22:15:32.159Z,10.00
2022-08-22T22:18:00.354Z,12.00
2022-08-22T22:20:29.735Z,12.00
2022-08-22T22:22:57.603Z,11.67
2022-08-22T22:25:40.380Z,10.00
2022-08-22T22:28:12.758Z,11.33
2022-08-22T22:30:42.088Z,13.00
2022-08-22T22:33:10.193Z,11.00
2022-08-22T22:35:39.208Z,12.00
2022-08-22T22:38:07.213Z,10.67
2022-08-22T22:40:35.323Z,11.33
2022-08-22T22:43:03.682Z,12.00
2022-08-22T22:45:31.593Z,11.00
2022-08-22T22:47:59.552Z,10.50
2022-08-22T22:50:27.463Z,13.00
2022-08-22T22:52:55.865Z,11.00
2022-08-22T22:55:25.228Z,10.50
2022-08-22T22:57:58.680Z,10.50
2022-08-22T23:00:31.539Z,11.00
2022-08-22T23:03:00.684Z,11.33
2022-08-22T23:05:31.898Z,11.00
2022-08-22T23:08:00.655Z,11.00
2022-08-22T23:10:29.685Z,11.00
2022-08-22T23:12:57.932Z,9.33
2022-08-22T23:15:26.203Z,12.33
2022-08-22T23:17:54.296Z,9.33
2022-08-22T23:20:22.105Z,11.00
2022-08-22T23:22:50.241Z,11.33
2022-08-22T23:25:18.206Z,11.33
2022-08-22T23:27:52.153Z,12.67
2022-08-22T23:30:21.831Z,12.67
2022-08-22T23:32:50.099Z,10.00
2022-08-22T23:35:18.190Z,12.00
2022-08-22T23:37:45.969Z,13.00
2022-08-22T23:40:14.385Z,13.00
2022-08-22T23:42:42.795Z,12.00
2022-08-22T23:45:11.218Z,12.00
2022-08-22T23:47:39.143Z,11.00
2022-08-22T23:50:07.105Z,12.00
2022-08-22T23:52:34.929Z,12.00
2022-08-22T23:55:03.054Z,12.00
2022-08-22T23:57:31.045Z,11.00
2022-08-22T23:59:59.690Z,11.00
